createdAt,value
2018-12-31T00:00:45.771Z,29.03
2018-12-31T00:03:32.754Z,29.20
2018-12-31T00:06:20.034Z,28.57
2018-12-31T00:09:07.286Z,30.33
2018-12-31T00:11:54.666Z,29.90
2018-12-31T00:14:41.170Z,28.87
2018-12-31T00:17:28.462Z,28.83
2018-12-31T00:20:15.907Z,29.47
2018-12-31T00:23:03.238Z,29.53
2018-12-31T00:25:50.610Z,29.63
2018-12-31T00:28:37.783Z,29.17
2018-12-31T00:31:13.100Z,29.73
2018-12-31T00:34:09.131Z,29.37
2018-12-31T00:36:55.855Z,28.53
2018-12-31T00:39:42.901Z,28.47
2018-12-31T00:42:30.009Z,28.60
2018-12-31T00:45:16.959Z,29.23
2018-12-31T00:48:04.003Z,28.90
2018-12-31T00:50:51.193Z,29.03
2018-12-31T00:53:38.318Z,29.20
2018-12-31T00:56:25.454Z,30.30
2018-12-31T00:59:12.630Z,30.97
2018-12-31T01:01:59.466Z,29.63
2018-12-31T01:04:46.630Z,28.73
2018-12-31T01:07:34.039Z,28.77
2018-12-31T01:10:21.295Z,29.30
2018-12-31T01:12:56.865Z,28.93
2018-12-31T01:15:32.237Z,29.30
2018-12-31T01:18:07.593Z,28.93
2018-12-31T01:20:42.938Z,28.57
2018-12-31T01:23:18.296Z,28.80
2018-12-31T01:25:53.702Z,28.30
2018-12-31T01:28:29.053Z,28.37
2018-12-31T01:31:04.408Z,28.63
2018-12-31T01:33:40.705Z,28.33
2018-12-31T01:36:16.061Z,27.77
2018-12-31T01:38:51.386Z,28.03
2018-12-31T01:41:26.775Z,27.50
2018-12-31T01:44:02.122Z,27.40
2018-12-31T01:46:38.429Z,27.37
2018-12-31T01:49:13.785Z,27.90
2018-12-31T01:51:49.114Z,27.23
2018-12-31T01:54:24.461Z,27.90
2018-12-31T01:56:59.847Z,28.27
2018-12-31T01:59:35.138Z,27.43
2018-12-31T02:02:10.546Z,27.80
2018-12-31T02:04:45.921Z,27.17
2018-12-31T02:07:24.282Z,26.90
2018-12-31T02:09:59.629Z,26.50
2018-12-31T02:12:35.057Z,26.37
2018-12-31T02:15:10.410Z,26.60
2018-12-31T02:17:45.738Z,26.30
2018-12-31T02:20:21.093Z,26.60
2018-12-31T02:22:56.417Z,26.70
2018-12-31T02:25:31.826Z,26.30
2018-12-31T02:28:09.943Z,26.57
2018-12-31T02:30:45.689Z,26.33
2018-12-31T02:33:21.023Z,26.77
2018-12-31T02:35:56.399Z,25.77
2018-12-31T02:38:31.717Z,25.80
2018-12-31T02:41:07.116Z,25.97
2018-12-31T02:43:42.441Z,25.97
2018-12-31T02:46:17.831Z,27.00
2018-12-31T02:48:53.210Z,26.40
2018-12-31T02:51:28.570Z,25.73
2018-12-31T02:54:03.898Z,26.10
2018-12-31T02:56:39.313Z,26.17
2018-12-31T02:59:14.644Z,25.63
2018-12-31T03:01:49.986Z,26.13
2018-12-31T03:04:25.429Z,26.00
2018-12-31T03:07:00.778Z,25.60
2018-12-31T03:09:36.098Z,26.03
2018-12-31T03:12:11.450Z,25.87
2018-12-31T03:14:46.881Z,25.60
2018-12-31T03:17:22.245Z,26.07
2018-12-31T03:19:57.569Z,26.37
2018-12-31T03:22:32.930Z,26.03
2018-12-31T03:25:08.289Z,26.40
2018-12-31T03:27:43.651Z,26.33
2018-12-31T03:30:18.983Z,27.57
2018-12-31T03:32:54.336Z,26.77
2018-12-31T03:35:31.667Z,26.03
2018-12-31T03:38:07.022Z,25.87
2018-12-31T03:40:42.355Z,26.37
2018-12-31T03:43:17.708Z,26.27
2018-12-31T03:45:53.039Z,26.23
2018-12-31T03:48:28.377Z,26.40
2018-12-31T03:51:09.335Z,26.90
2018-12-31T03:53:44.702Z,26.90
2018-12-31T03:56:20.037Z,26.67
2018-12-31T03:58:55.418Z,26.93
2018-12-31T04:01:30.688Z,26.33
2018-12-31T04:04:05.994Z,26.23
2018-12-31T04:06:41.339Z,26.33
2018-12-31T04:09:16.731Z,26.70
2018-12-31T04:11:52.066Z,26.83
2018-12-31T04:14:27.378Z,26.37
2018-12-31T04:17:02.741Z,26.80
2018-12-31T04:19:38.043Z,26.67
2018-12-31T04:22:13.399Z,27.47
2018-12-31T04:24:48.701Z,27.43
2018-12-31T04:27:24.145Z,26.90
2018-12-31T04:29:59.449Z,27.43
2018-12-31T04:32:34.790Z,27.17
2018-12-31T04:35:10.098Z,27.10
2018-12-31T04:37:45.438Z,27.10
2018-12-31T04:40:20.771Z,27.50
2018-12-31T04:42:56.106Z,26.67
2018-12-31T04:45:31.413Z,27.10
2018-12-31T04:48:06.773Z,27.00
2018-12-31T04:50:42.121Z,27.13
2018-12-31T04:53:17.458Z,27.57
2018-12-31T04:55:52.847Z,28.20
2018-12-31T04:58:29.282Z,28.13
2018-12-31T05:01:04.598Z,27.30
2018-12-31T05:03:39.940Z,27.40
2018-12-31T05:06:15.249Z,27.97
2018-12-31T05:08:51.673Z,27.40
2018-12-31T05:11:26.985Z,26.67
2018-12-31T05:14:02.330Z,27.63
2018-12-31T05:16:37.633Z,28.13
2018-12-31T05:19:12.971Z,29.73
2018-12-31T05:21:48.278Z,27.57
2018-12-31T05:24:23.761Z,28.63
2018-12-31T05:27:00.071Z,29.80
2018-12-31T05:29:36.148Z,27.60
2018-12-31T05:32:12.318Z,29.20
2018-12-31T05:34:47.753Z,28.40
2018-12-31T05:37:23.067Z,27.13
2018-12-31T05:39:58.430Z,27.40
2018-12-31T05:42:33.738Z,28.00
2018-12-31T05:45:09.080Z,28.80
2018-12-31T05:47:44.389Z,28.80
2018-12-31T05:50:19.729Z,27.60
2018-12-31T05:52:55.041Z,27.13
2018-12-31T05:55:30.496Z,27.47
2018-12-31T05:58:05.858Z,27.57
2018-12-31T06:00:42.150Z,27.37
2018-12-31T06:03:17.625Z,27.03
2018-12-31T06:05:52.927Z,26.90
2018-12-31T06:08:28.274Z,26.60
2018-12-31T06:11:03.630Z,26.90
2018-12-31T06:13:38.970Z,26.47
2018-12-31T06:16:14.286Z,26.73
2018-12-31T06:18:49.622Z,26.53
2018-12-31T06:21:24.929Z,26.77
2018-12-31T06:24:00.274Z,26.93
2018-12-31T06:26:35.583Z,26.97
2018-12-31T06:29:10.921Z,26.80
2018-12-31T06:31:46.278Z,26.17
2018-12-31T06:34:21.613Z,26.57
2018-12-31T06:36:56.940Z,26.47
2018-12-31T06:39:32.333Z,26.70
2018-12-31T06:42:07.677Z,26.50
2018-12-31T06:44:43.010Z,26.27
2018-12-31T06:47:18.317Z,26.43
2018-12-31T06:49:53.774Z,26.93
2018-12-31T06:52:29.078Z,26.57
2018-12-31T06:55:04.554Z,26.57
2018-12-31T06:57:39.866Z,27.10
2018-12-31T07:00:15.218Z,26.93
2018-12-31T07:02:50.527Z,27.20
2018-12-31T07:05:25.865Z,26.50
2018-12-31T07:08:01.184Z,26.40
2018-12-31T07:10:36.538Z,27.23
2018-12-31T07:13:11.837Z,26.00
2018-12-31T07:15:47.450Z,26.53
2018-12-31T07:18:22.757Z,26.70
2018-12-31T07:20:58.105Z,26.87
2018-12-31T07:23:33.421Z,27.23
2018-12-31T07:26:08.761Z,27.13
2018-12-31T07:28:44.065Z,27.53
2018-12-31T07:31:31.399Z,28.20
2018-12-31T07:34:18.546Z,27.83
2018-12-31T07:37:05.845Z,27.43
2018-12-31T07:39:52.803Z,28.70
2018-12-31T07:42:39.866Z,29.23
2018-12-31T07:45:26.895Z,28.43
2018-12-31T07:48:14.133Z,28.30
2018-12-31T07:51:01.251Z,28.50
2018-12-31T07:53:48.537Z,28.37
2018-12-31T07:56:35.770Z,29.53
2018-12-31T07:59:22.935Z,28.67
2018-12-31T08:02:10.366Z,29.20
2018-12-31T08:04:57.416Z,29.73
2018-12-31T08:07:44.953Z,30.80
2018-12-31T08:10:32.102Z,31.23
2018-12-31T08:13:18.722Z,31.00
2018-12-31T08:16:06.206Z,31.10
2018-12-31T08:18:53.650Z,31.13
2018-12-31T08:21:41.006Z,31.30
2018-12-31T08:24:28.331Z,31.00
2018-12-31T08:27:15.442Z,31.10
2018-12-31T08:30:02.668Z,32.33
2018-12-31T08:32:49.762Z,31.33
2018-12-31T08:35:25.193Z,30.67
2018-12-31T08:38:19.572Z,30.53
2018-12-31T08:41:06.975Z,31.93
2018-12-31T08:43:53.975Z,31.20
2018-12-31T08:46:40.964Z,31.70
2018-12-31T08:49:27.625Z,32.60
2018-12-31T08:52:15.066Z,32.23
2018-12-31T08:55:02.166Z,32.80
2018-12-31T08:57:49.638Z,33.13
2018-12-31T09:00:36.893Z,33.87
2018-12-31T09:03:24.151Z,33.50
2018-12-31T09:06:11.343Z,31.70
2018-12-31T09:08:58.576Z,32.67
2018-12-31T09:11:45.798Z,33.03
2018-12-31T09:14:33.082Z,32.27
2018-12-31T09:17:20.163Z,32.30
2018-12-31T09:20:07.379Z,32.40
2018-12-31T09:22:54.647Z,32.57
2018-12-31T09:25:41.779Z,31.57
2018-12-31T09:28:29.052Z,32.30
2018-12-31T09:31:16.509Z,32.57
2018-12-31T09:34:03.875Z,34.40
2018-12-31T09:36:51.230Z,32.90
2018-12-31T09:39:38.381Z,34.43
2018-12-31T09:42:25.582Z,32.70
2018-12-31T09:45:12.537Z,32.57
2018-12-31T09:47:59.863Z,33.10
2018-12-31T09:50:47.008Z,32.93
2018-12-31T09:53:34.178Z,32.77
2018-12-31T09:56:21.346Z,32.27
2018-12-31T09:59:08.755Z,32.07
2018-12-31T10:01:55.863Z,31.60
2018-12-31T10:04:43.793Z,31.43
2018-12-31T10:07:30.787Z,32.27
2018-12-31T10:10:16.204Z,31.60
2018-12-31T10:13:10.597Z,31.97
2018-12-31T10:15:57.659Z,31.70
2018-12-31T10:18:44.740Z,33.43
2018-12-31T10:21:31.854Z,34.70
2018-12-31T10:24:19.094Z,32.87
2018-12-31T10:27:06.394Z,32.07
2018-12-31T10:29:53.803Z,32.47
2018-12-31T10:32:40.796Z,31.67
2018-12-31T10:35:28.098Z,31.63
2018-12-31T10:38:15.298Z,33.03
2018-12-31T10:41:02.610Z,32.67
2018-12-31T10:43:49.590Z,32.20
2018-12-31T10:46:36.355Z,31.30
2018-12-31T10:49:23.178Z,39.27
2018-12-31T10:52:10.018Z,35.07
2018-12-31T10:54:57.425Z,33.70
2018-12-31T10:57:44.518Z,30.00
2018-12-31T11:00:31.457Z,30.37
2018-12-31T11:03:18.478Z,30.33
2018-12-31T11:06:05.502Z,30.73
2018-12-31T11:08:52.639Z,30.67
2018-12-31T11:11:39.782Z,31.13
2018-12-31T11:14:27.190Z,31.93
2018-12-31T11:17:14.490Z,31.77
2018-12-31T11:20:01.387Z,31.73
2018-12-31T11:22:48.725Z,30.70
2018-12-31T11:25:37.596Z,31.93
2018-12-31T11:28:24.622Z,32.70
2018-12-31T11:31:11.423Z,33.10
2018-12-31T11:33:58.826Z,33.87
2018-12-31T11:36:46.366Z,35.63
2018-12-31T11:39:33.405Z,33.70
2018-12-31T11:42:20.782Z,35.67
2018-12-31T11:45:08.110Z,34.33
2018-12-31T11:47:55.353Z,34.70
2018-12-31T11:50:42.774Z,33.17
2018-12-31T11:53:30.172Z,33.83
2018-12-31T11:56:17.415Z,35.27
2018-12-31T11:59:04.554Z,35.07
2018-12-31T12:01:51.854Z,33.07
2018-12-31T12:04:38.929Z,32.37
2018-12-31T12:07:26.155Z,32.97
2018-12-31T12:10:13.403Z,32.87
2018-12-31T12:13:00.669Z,33.10
2018-12-31T12:15:48.224Z,33.17
2018-12-31T12:18:35.622Z,33.50
2018-12-31T12:21:22.791Z,34.03
2018-12-31T12:24:09.969Z,35.00
2018-12-31T12:26:57.239Z,36.30
2018-12-31T12:29:44.639Z,34.20
2018-12-31T12:32:31.853Z,33.87
2018-12-31T12:35:19.222Z,33.43
2018-12-31T12:38:06.349Z,33.67
2018-12-31T12:40:53.460Z,33.43
2018-12-31T12:43:40.722Z,33.17
2018-12-31T12:46:46.601Z,34.10
2018-12-31T12:49:34.135Z,33.87
2018-12-31T12:52:21.169Z,33.80
2018-12-31T12:55:08.162Z,52.20
2018-12-31T12:57:56.516Z,35.10
2018-12-31T13:00:43.201Z,37.17
2018-12-31T13:03:30.258Z,35.93
2018-12-31T13:06:17.375Z,36.03
2018-12-31T13:09:04.873Z,37.13
2018-12-31T13:11:51.589Z,38.43
2018-12-31T13:14:38.919Z,38.00
2018-12-31T13:17:26.259Z,39.23
2018-12-31T13:20:13.238Z,39.20
2018-12-31T13:23:00.426Z,37.90
2018-12-31T13:25:47.602Z,37.07
2018-12-31T13:28:34.253Z,37.80
2018-12-31T13:31:21.532Z,37.53
2018-12-31T13:34:08.727Z,36.67
2018-12-31T13:36:56.004Z,38.27
2018-12-31T13:39:43.838Z,37.87
2018-12-31T13:42:32.439Z,36.73
2018-12-31T13:45:19.574Z,35.70
2018-12-31T13:48:07.003Z,35.47
2018-12-31T13:50:54.377Z,37.10
2018-12-31T13:53:42.519Z,44.13
2018-12-31T13:56:30.042Z,38.80
2018-12-31T13:59:17.560Z,39.00
2018-12-31T14:02:04.490Z,38.90
2018-12-31T14:04:51.646Z,37.70
2018-12-31T14:07:27.078Z,39.50
2018-12-31T14:10:21.618Z,37.97
2018-12-31T14:13:08.375Z,37.40
2018-12-31T14:15:55.699Z,37.00
2018-12-31T14:18:42.915Z,38.13
2018-12-31T14:21:30.031Z,37.20
2018-12-31T14:24:16.597Z,37.63
2018-12-31T14:27:03.788Z,38.03
2018-12-31T14:29:51.176Z,36.90
2018-12-31T14:32:38.435Z,36.63
2018-12-31T14:35:26.251Z,38.30
2018-12-31T14:38:13.280Z,37.50
2018-12-31T14:41:00.598Z,38.37
2018-12-31T14:43:48.432Z,43.47
2018-12-31T14:49:27.364Z,40.87
2018-12-31T14:52:21.302Z,45.53
2018-12-31T14:54:56.970Z,40.80
2018-12-31T14:57:32.415Z,39.87
2018-12-31T15:00:18.991Z,37.33
2018-12-31T15:03:06.070Z,36.43
2018-12-31T15:05:53.282Z,34.20
2018-12-31T15:08:40.230Z,34.43
2018-12-31T15:11:27.493Z,33.60
2018-12-31T15:14:15.288Z,33.53
2018-12-31T15:17:02.614Z,33.73
2018-12-31T15:19:49.895Z,34.30
2018-12-31T15:22:36.771Z,34.47
2018-12-31T15:25:24.142Z,35.40
2018-12-31T15:28:11.355Z,36.13
2018-12-31T15:30:58.573Z,36.40
2018-12-31T15:33:46.040Z,36.40
2018-12-31T15:36:32.820Z,34.80
2018-12-31T15:39:20.125Z,36.03
2018-12-31T15:42:07.648Z,37.17
2018-12-31T15:44:54.702Z,35.27
2018-12-31T15:47:43.919Z,34.73
2018-12-31T15:50:30.942Z,36.33
2018-12-31T15:56:24.310Z,36.20
2018-12-31T15:59:11.532Z,35.43
2018-12-31T16:01:58.551Z,34.97
2018-12-31T16:04:45.825Z,37.17
2018-12-31T16:07:33.162Z,35.93
2018-12-31T16:10:20.419Z,37.33
2018-12-31T16:13:07.703Z,35.23
2018-12-31T16:15:54.809Z,34.67
2018-12-31T16:18:41.999Z,34.87
2018-12-31T16:21:28.998Z,35.50
2018-12-31T16:24:16.396Z,35.87
2018-12-31T16:27:03.491Z,37.40
2018-12-31T16:29:51.398Z,37.40
2018-12-31T16:32:38.711Z,37.73
2018-12-31T16:35:25.907Z,37.13
2018-12-31T16:38:13.223Z,35.67
2018-12-31T16:41:00.522Z,36.23
2018-12-31T16:43:47.468Z,37.20
2018-12-31T16:46:34.646Z,37.83
2018-12-31T16:49:22.022Z,37.83
2018-12-31T16:52:09.774Z,37.37
2018-12-31T16:55:01.628Z,40.13
2018-12-31T16:57:49.446Z,42.83
2018-12-31T17:00:36.166Z,42.87
2018-12-31T17:03:23.695Z,37.43
2018-12-31T17:06:10.590Z,39.13
2018-12-31T17:08:57.642Z,37.87
2018-12-31T17:11:44.746Z,38.27
2018-12-31T17:14:32.075Z,38.03
2018-12-31T17:17:21.703Z,37.63
2018-12-31T17:20:08.704Z,39.60
2018-12-31T17:22:56.019Z,38.10
2018-12-31T17:25:43.038Z,38.77
2018-12-31T17:28:30.050Z,38.73
2018-12-31T17:31:17.302Z,38.13
2018-12-31T17:34:04.602Z,37.63
2018-12-31T17:36:52.039Z,37.63
2018-12-31T17:39:39.351Z,39.77
2018-12-31T17:42:26.985Z,38.10
2018-12-31T17:45:13.962Z,38.67
2018-12-31T17:48:01.573Z,38.23
2018-12-31T17:50:48.610Z,38.60
2018-12-31T17:53:35.695Z,39.90
2018-12-31T17:56:23.723Z,39.17
2018-12-31T17:59:10.431Z,39.60
2018-12-31T18:01:57.503Z,39.13
2018-12-31T18:04:44.310Z,38.50
2018-12-31T18:07:31.395Z,40.20
2018-12-31T18:10:18.540Z,39.53
2018-12-31T18:13:05.690Z,39.27
2018-12-31T18:15:52.943Z,39.50
2018-12-31T18:18:39.923Z,39.37
2018-12-31T18:21:26.879Z,38.07
2018-12-31T18:24:14.467Z,40.07
2018-12-31T18:27:01.426Z,39.30
2018-12-31T18:29:48.706Z,39.57
2018-12-31T18:32:35.863Z,39.97
2018-12-31T18:35:23.019Z,40.00
2018-12-31T18:38:10.094Z,38.53
2018-12-31T18:40:57.275Z,39.50
2018-12-31T18:43:44.346Z,39.03
2018-12-31T18:46:31.615Z,40.63
2018-12-31T18:49:18.922Z,41.93
2018-12-31T18:52:06.207Z,42.80
2018-12-31T18:54:53.245Z,42.53
2018-12-31T18:57:40.654Z,41.37
2018-12-31T19:00:28.077Z,41.43
2018-12-31T19:03:15.379Z,43.93
2018-12-31T19:06:02.662Z,45.83
2018-12-31T19:08:49.843Z,45.63
2018-12-31T19:11:36.498Z,44.53
2018-12-31T19:14:23.751Z,42.17
2018-12-31T19:17:11.077Z,42.50
2018-12-31T19:19:58.683Z,41.67
2018-12-31T19:22:46.006Z,41.10
2018-12-31T19:25:33.424Z,42.10
2018-12-31T19:28:20.743Z,42.80
2018-12-31T19:31:07.990Z,42.27
2018-12-31T19:33:55.342Z,40.73
2018-12-31T19:36:42.354Z,42.93
2018-12-31T19:39:29.561Z,42.60
2018-12-31T19:42:16.579Z,42.63
2018-12-31T19:45:03.974Z,40.23
2018-12-31T19:47:50.566Z,42.97
2018-12-31T19:50:37.578Z,43.43
2018-12-31T19:53:24.433Z,44.23
2018-12-31T19:56:11.587Z,44.97
2018-12-31T19:58:58.691Z,44.73
2018-12-31T20:01:45.731Z,43.87
2018-12-31T20:04:32.606Z,43.53
2018-12-31T20:07:19.460Z,42.70
2018-12-31T20:10:06.287Z,42.13
2018-12-31T20:12:53.366Z,44.07
2018-12-31T20:15:48.286Z,49.57
2018-12-31T20:18:29.363Z,46.63
2018-12-31T20:21:16.630Z,46.80
2018-12-31T20:24:03.391Z,47.03
2018-12-31T20:26:50.526Z,45.67
2018-12-31T20:29:37.727Z,46.00
2018-12-31T20:32:24.765Z,43.00
2018-12-31T20:35:11.779Z,41.03
2018-12-31T20:37:59.186Z,39.10
2018-12-31T20:40:46.012Z,40.40
2018-12-31T20:43:33.327Z,41.03
2018-12-31T20:46:20.452Z,40.03
2018-12-31T20:49:07.533Z,44.43
2018-12-31T20:51:54.533Z,42.20
2018-12-31T20:54:41.374Z,43.33
2018-12-31T20:57:28.351Z,42.97
2018-12-31T21:00:15.615Z,43.80
2018-12-31T21:03:02.589Z,46.13
2018-12-31T21:05:49.762Z,45.33
2018-12-31T21:08:36.565Z,44.60
2018-12-31T21:11:23.596Z,43.97
2018-12-31T21:14:11.191Z,43.93
2018-12-31T21:16:59.150Z,43.37
2018-12-31T21:19:46.412Z,45.37
2018-12-31T21:22:33.466Z,44.60
2018-12-31T21:25:20.770Z,42.27
2018-12-31T21:28:09.123Z,46.00
2018-12-31T21:30:56.250Z,47.50
2018-12-31T21:33:43.237Z,44.63
2018-12-31T21:36:30.266Z,45.93
2018-12-31T21:39:17.634Z,49.07
2018-12-31T21:42:04.847Z,45.63
2018-12-31T21:44:52.134Z,45.27
2018-12-31T21:47:39.548Z,47.53
2018-12-31T21:50:27.333Z,47.00
2018-12-31T21:53:14.594Z,48.57
2018-12-31T21:56:03.227Z,43.33
2018-12-31T21:58:51.836Z,43.07
2018-12-31T22:01:39.988Z,48.52
2018-12-31T22:04:27.327Z,50.80
2018-12-31T22:07:14.536Z,52.23
2018-12-31T22:10:01.248Z,51.60
2018-12-31T22:12:48.555Z,49.80
2018-12-31T22:15:35.826Z,50.00
2018-12-31T22:18:23.323Z,48.50
2018-12-31T22:21:10.366Z,49.43
2018-12-31T22:23:57.489Z,50.20
2018-12-31T22:26:44.506Z,48.70
2018-12-31T22:29:31.785Z,46.97
2018-12-31T22:32:18.812Z,47.47
2018-12-31T22:35:05.594Z,48.07
2018-12-31T22:37:52.725Z,47.67
2018-12-31T22:40:40.038Z,44.87
2018-12-31T22:43:27.406Z,46.93
2018-12-31T22:46:14.838Z,46.90
2018-12-31T22:49:03.500Z,44.73
2018-12-31T22:51:50.918Z,44.10
2018-12-31T22:54:38.089Z,43.10
2018-12-31T22:57:25.414Z,42.87
2018-12-31T23:00:12.655Z,42.67
2018-12-31T23:02:59.778Z,40.73
2018-12-31T23:05:46.630Z,44.10
2018-12-31T23:08:33.859Z,37.73
2018-12-31T23:11:21.126Z,35.73
2018-12-31T23:14:08.301Z,33.67
2018-12-31T23:16:55.313Z,32.83
2018-12-31T23:19:42.684Z,34.73
2018-12-31T23:22:29.578Z,35.80
2018-12-31T23:25:16.998Z,34.67
2018-12-31T23:28:03.827Z,36.37
2018-12-31T23:30:51.131Z,38.67
2018-12-31T23:33:38.281Z,60.23
2018-12-31T23:36:25.379Z,42.83
2018-12-31T23:39:12.786Z,39.20
2018-12-31T23:41:59.438Z,38.27
2018-12-31T23:44:52.776Z,38.07
2018-12-31T23:47:34.762Z,40.20
2018-12-31T23:50:22.265Z,38.97
2018-12-31T23:53:08.893Z,37.80
2018-12-31T23:55:56.278Z,37.33
2018-12-31T23:58:43.454Z,35.90
